Time;durP1;ratioP1;P1;durP2;ratioP2;P2;SDS_P1;SDS_P2;PMS_P1;PMS_P2;Temp;Humidity;BMP_temperature;BMP_pressure;BME280_temperature;BME280_humidity;BME280_pressure;Samples;Min_cycle;Max_cycle;Signal;HPM_P1;HPM_P2
2023/05/06 00:00:17;;;;;;;12.02;8.65;;;;;;;;;;5045089;28;20119;-60
2023/05/06 00:02:42;;;;;;;13.73;9.02;;;;;;;;;;5044872;28;20063;-57
2023/05/06 00:05:08;;;;;;;17.40;9.23;;;;;;;;;;5044631;28;20021;-60
2023/05/06 00:07:33;;;;;;;14.32;9.35;;;;;;;;;;5044864;28;20497;-59
2023/05/06 00:09:58;;;;;;;12.82;8.23;;;;;;;;;;5045222;28;20108;-55
2023/05/06 00:12:24;;;;;;;17.67;9.13;;;;;;;;;;5045000;28;20024;-60
2023/05/06 00:14:49;;;;;;;14.05;9.88;;;;;;;;;;5045200;28;20059;-59
2023/05/06 00:17:15;;;;;;;15.23;9.57;;;;;;;;;;5045243;28;20087;-59
2023/05/06 00:19:41;;;;;;;17.55;9.05;;;;;;;;;;5044851;28;20032;-56
2023/05/06 00:22:06;;;;;;;13.40;8.95;;;;;;;;;;5045288;28;20025;-60
2023/05/06 00:24:31;;;;;;;14.43;8.88;;;;;;;;;;5045021;28;20071;-58
2023/05/06 00:26:57;;;;;;;13.48;9.57;;;;;;;;;;5044586;28;20371;-57
2023/05/06 00:29:22;;;;;;;16.00;9.00;;;;;;;;;;5008312;28;20418;-59
2023/05/06 00:31:47;;;;;;;13.80;9.63;;;;;;;;;;5044589;28;20025;-58
2023/05/06 00:34:13;;;;;;;15.10;9.57;;;;;;;;;;5044800;28;20021;-58
2023/05/06 00:36:38;;;;;;;14.88;9.25;;;;;;;;;;5044724;28;20437;-59
2023/05/06 00:39:04;;;;;;;16.52;9.32;;;;;;;;;;4992729;28;20091;-59
2023/05/06 00:41:31;;;;;;;13.05;8.77;;;;;;;;;;5044822;28;20067;-58
2023/05/06 00:43:56;;;;;;;13.93;8.45;;;;;;;;;;5044548;28;20540;-60
2023/05/06 00:46:21;;;;;;;14.73;8.73;;;;;;;;;;5027019;28;20061;-58
2023/05/06 00:48:47;;;;;;;16.33;9.30;;;;;;;;;;5044845;28;20032;-58
2023/05/06 00:51:12;;;;;;;14.63;9.35;;;;;;;;;;5044468;28;20469;-59
2023/05/06 00:53:38;;;;;;;15.38;9.13;;;;;;;;;;5027740;28;20214;-57
2023/05/06 00:56:04;;;;;;;15.40;8.75;;;;;;;;;;5048589;28;20139;-58
2023/05/06 00:58:30;;;;;;;11.73;8.32;;;;;;;;;;5048071;28;20089;-60
2023/05/06 01:00:55;;;;;;;14.05;9.18;;;;;;;;;;5048719;28;20028;-59
2023/05/06 01:03:21;;;;;;;12.13;8.07;;;;;;;;;;5048039;28;20032;-56
2023/05/06 01:05:52;;;;;;;11.73;7.93;;;;;;;;;;5048413;28;20013;-59
2023/05/06 01:08:28;;;;;;;12.80;8.93;;;;;;;;;;5048509;28;20085;-53
2023/05/06 01:11:01;;;;;;;16.13;9.88;;;;;;;;;;5048739;28;20727;-57
2023/05/06 01:13:35;;;;;;;16.83;9.52;;;;;;;;;;5048007;28;20025;-59
2023/05/06 01:16:01;;;;;;;15.70;9.13;;;;;;;;;;5047912;28;20056;-58
2023/05/06 01:18:29;;;;;;;14.45;9.00;;;;;;;;;;5048261;28;20540;-59
2023/05/06 01:20:55;;;;;;;18.05;8.88;;;;;;;;;;5048675;28;20455;-59
2023/05/06 01:23:20;;;;;;;11.70;8.55;;;;;;;;;;5048349;28;20050;-58
2023/05/06 01:25:46;;;;;;;15.68;9.85;;;;;;;;;;5048473;28;20377;-58
2023/05/06 01:28:12;;;;;;;18.90;10.45;;;;;;;;;;5048626;28;20059;-60
2023/05/06 01:30:52;;;;;;;12.95;9.23;;;;;;;;;;5048375;28;20029;-58
2023/05/06 01:33:26;;;;;;;13.63;9.52;;;;;;;;;;5047927;28;20025;-57
2023/05/06 01:36:05;;;;;;;15.55;10.02;;;;;;;;;;5047164;28;20094;-58
2023/05/06 01:38:31;;;;;;;16.15;9.50;;;;;;;;;;5047462;28;20361;-58
2023/05/06 01:40:57;;;;;;;12.88;8.73;;;;;;;;;;5047935;28;20321;-59
2023/05/06 01:43:25;;;;;;;25.02;10.23;;;;;;;;;;5047514;28;20048;-60
2023/05/06 01:45:52;;;;;;;16.65;10.50;;;;;;;;;;5047380;28;20053;-59
2023/05/06 01:48:21;;;;;;;17.27;10.13;;;;;;;;;;5047883;28;20554;-59
2023/05/06 01:50:47;;;;;;;17.45;10.82;;;;;;;;;;5047327;28;20017;-59
2023/05/06 01:53:12;;;;;;;17.65;10.68;;;;;;;;;;5047431;28;20484;-60
2023/05/06 01:55:37;;;;;;;15.02;9.95;;;;;;;;;;5047423;28;20028;-60
2023/05/06 01:58:03;;;;;;;17.80;10.70;;;;;;;;;;5047283;28;20167;-58
2023/05/06 02:00:28;;;;;;;17.45;10.25;;;;;;;;;;5047826;28;20410;-60
2023/05/06 02:02:53;;;;;;;17.85;10.20;;;;;;;;;;4995082;28;20029;-58
2023/05/06 02:05:19;;;;;;;20.98;10.27;;;;;;;;;;5047866;28;20025;-55
2023/05/06 02:07:44;;;;;;;16.27;9.85;;;;;;;;;;5047417;28;20090;-57
2023/05/06 02:10:10;;;;;;;14.15;9.73;;;;;;;;;;5047551;28;20489;-57
2023/05/06 02:12:35;;;;;;;18.23;10.65;;;;;;;;;;5047628;28;20052;-60
2023/05/06 02:15:00;;;;;;;19.60;10.40;;;;;;;;;;5047317;28;20078;-58
2023/05/06 02:17:26;;;;;;;13.13;9.68;;;;;;;;;;5047016;28;20375;-63
2023/05/06 02:19:51;;;;;;;15.90;9.48;;;;;;;;;;5047350;28;20059;-59
2023/05/06 02:22:16;;;;;;;15.60;10.35;;;;;;;;;;5047108;28;20159;-56
2023/05/06 02:24:41;;;;;;;12.73;9.38;;;;;;;;;;5046880;28;20024;-58
2023/05/06 02:27:07;;;;;;;14.23;9.18;;;;;;;;;;5046929;28;20094;-59
2023/05/06 02:29:32;;;;;;;16.48;9.80;;;;;;;;;;5047338;28;20024;-60
2023/05/06 02:31:58;;;;;;;16.67;10.25;;;;;;;;;;5047253;28;20075;-56
2023/05/06 02:34:23;;;;;;;18.17;10.07;;;;;;;;;;5047062;28;20028;-59
2023/05/06 02:36:48;;;;;;;17.95;9.27;;;;;;;;;;5046656;28;20013;-60
2023/05/06 02:39:13;;;;;;;14.07;9.82;;;;;;;;;;5046588;28;20468;-55
2023/05/06 02:41:39;;;;;;;15.68;10.68;;;;;;;;;;5046812;28;20256;-59
2023/05/06 02:44:05;;;;;;;13.20;9.07;;;;;;;;;;4994703;28;20471;-59
2023/05/06 02:46:30;;;;;;;16.23;11.07;;;;;;;;;;5046493;28;20152;-60
2023/05/06 02:48:55;;;;;;;16.38;11.73;;;;;;;;;;5046619;28;20029;-58
2023/05/06 02:51:20;;;;;;;17.60;11.35;;;;;;;;;;5046781;28;20617;-57
2023/05/06 02:53:46;;;;;;;17.83;11.07;;;;;;;;;;5046742;28;20074;-56
2023/05/06 02:56:11;;;;;;;19.23;11.30;;;;;;;;;;5046420;28;20107;-59
2023/05/06 02:58:36;;;;;;;19.13;11.73;;;;;;;;;;5046465;28;20025;-59
2023/05/06 03:01:01;;;;;;;18.15;11.32;;;;;;;;;;5046572;28;20094;-58
2023/05/06 03:03:27;;;;;;;18.45;11.45;;;;;;;;;;5046381;28;20021;-57
2023/05/06 03:05:52;;;;;;;17.45;11.57;;;;;;;;;;5046451;28;20108;-61
2023/05/06 03:08:17;;;;;;;20.05;11.63;;;;;;;;;;5046173;28;20035;-58
2023/05/06 03:10:43;;;;;;;18.15;12.35;;;;;;;;;;5046689;28;20021;-60
2023/05/06 03:13:08;;;;;;;16.55;10.80;;;;;;;;;;5046076;28;20136;-59
2023/05/06 03:15:33;;;;;;;18.35;10.73;;;;;;;;;;4995027;28;20428;-56
2023/05/06 03:17:59;;;;;;;17.67;12.23;;;;;;;;;;5046078;28;20035;-53
2023/05/06 03:20:24;;;;;;;17.67;11.30;;;;;;;;;;5046164;28;20036;-59
2023/05/06 03:22:50;;;;;;;17.00;11.00;;;;;;;;;;5046242;28;20269;-60
2023/05/06 03:25:15;;;;;;;16.95;10.57;;;;;;;;;;5046518;28;20017;-57
2023/05/06 03:27:41;;;;;;;17.75;11.57;;;;;;;;;;5045877;28;20037;-59
2023/05/06 03:30:07;;;;;;;18.85;11.57;;;;;;;;;;5045744;28;20028;-59
2023/05/06 03:32:32;;;;;;;19.17;11.60;;;;;;;;;;5045998;28;20024;-59
2023/05/06 03:34:58;;;;;;;19.90;12.23;;;;;;;;;;5045781;28;20025;-57
2023/05/06 03:37:23;;;;;;;17.27;11.27;;;;;;;;;;5045778;28;20490;-57
2023/05/06 03:39:48;;;;;;;15.10;10.52;;;;;;;;;;5045590;28;20036;-54
2023/05/06 03:42:13;;;;;;;14.68;10.25;;;;;;;;;;5045491;28;20379;-58
2023/05/06 03:44:39;;;;;;;19.00;11.48;;;;;;;;;;5045517;28;20029;-58
2023/05/06 03:47:04;;;;;;;18.27;11.77;;;;;;;;;;5045420;28;20517;-59
2023/05/06 03:49:29;;;;;;;17.13;10.80;;;;;;;;;;5045674;28;20057;-57
2023/05/06 03:51:55;;;;;;;19.88;11.55;;;;;;;;;;5045512;28;20021;-59
2023/05/06 03:54:21;;;;;;;19.05;12.40;;;;;;;;;;5045294;28;20024;-58
2023/05/06 03:56:46;;;;;;;19.45;11.82;;;;;;;;;;5045355;28;20524;-56
2023/05/06 03:59:12;;;;;;;18.55;11.30;;;;;;;;;;5045118;28;20107;-59
2023/05/06 04:01:37;;;;;;;20.95;12.15;;;;;;;;;;5045445;28;20455;-58
2023/05/06 04:04:02;;;;;;;17.52;11.07;;;;;;;;;;5045446;28;20021;-59
2023/05/06 04:06:28;;;;;;;17.45;11.75;;;;;;;;;;5045584;28;20469;-59
2023/05/06 04:08:53;;;;;;;18.77;12.18;;;;;;;;;;5045121;28;20060;-57
2023/05/06 04:11:18;;;;;;;16.42;11.85;;;;;;;;;;5045731;28;20029;-57
2023/05/06 04:13:44;;;;;;;20.40;12.40;;;;;;;;;;5047079;28;20039;-58
2023/05/06 04:16:09;;;;;;;18.75;12.52;;;;;;;;;;5045721;28;20029;-60
2023/05/06 04:18:34;;;;;;;17.98;12.63;;;;;;;;;;5045608;28;20647;-58
2023/05/06 04:21:00;;;;;;;20.30;13.60;;;;;;;;;;5045280;28;20330;-59
2023/05/06 04:23:25;;;;;;;17.58;12.48;;;;;;;;;;5045233;28;20044;-60
2023/05/06 04:25:50;;;;;;;19.45;11.25;;;;;;;;;;5045343;28;20032;-56
2023/05/06 04:28:16;;;;;;;21.63;13.82;;;;;;;;;;5046172;28;20017;-55
2023/05/06 04:30:45;;;;;;;25.00;14.10;;;;;;;;;;5031442;28;20047;-56
2023/05/06 04:33:10;;;;;;;23.35;13.02;;;;;;;;;;5049631;28;20025;-60
2023/05/06 04:35:36;;;;;;;21.70;13.55;;;;;;;;;;5048962;28;20035;-58
2023/05/06 04:38:01;;;;;;;21.80;14.38;;;;;;;;;;5049169;28;20029;-58
2023/05/06 04:40:27;;;;;;;24.20;14.52;;;;;;;;;;5049285;28;20021;-58
2023/05/06 04:42:52;;;;;;;17.13;11.88;;;;;;;;;;5048728;28;20438;-57
2023/05/06 04:45:18;;;;;;;20.15;13.68;;;;;;;;;;5048818;28;20029;-60
2023/05/06 04:47:43;;;;;;;23.20;14.15;;;;;;;;;;5013178;28;20090;-59
2023/05/06 04:50:09;;;;;;;21.42;14.73;;;;;;;;;;5048682;28;20528;-57
2023/05/06 04:52:35;;;;;;;17.15;12.88;;;;;;;;;;5048553;28;20021;-60
2023/05/06 04:55:00;;;;;;;16.75;12.45;;;;;;;;;;5048625;28;20650;-59
2023/05/06 04:57:25;;;;;;;25.00;13.15;;;;;;;;;;5048560;28;20059;-58
2023/05/06 04:59:51;;;;;;;19.48;12.88;;;;;;;;;;5049211;28;20616;-57
2023/05/06 05:02:16;;;;;;;21.00;13.23;;;;;;;;;;5048593;28;20119;-60
2023/05/06 05:04:41;;;;;;;20.35;13.50;;;;;;;;;;5048714;28;20016;-60
2023/05/06 05:07:07;;;;;;;23.83;12.98;;;;;;;;;;5048949;28;20024;-58
2023/05/06 05:09:32;;;;;;;15.43;11.35;;;;;;;;;;5050669;28;20021;-58
2023/05/06 05:12:00;;;;;;;19.85;11.63;;;;;;;;;;5048847;28;20025;-59
2023/05/06 05:14:25;;;;;;;17.30;12.23;;;;;;;;;;5048625;28;20067;-59
2023/05/06 05:16:50;;;;;;;18.58;13.20;;;;;;;;;;5029504;28;20466;-54
2023/05/06 05:19:15;;;;;;;20.58;13.20;;;;;;;;;;5048650;28;20082;-55
2023/05/06 05:21:41;;;;;;;18.70;10.13;;;;;;;;;;5048672;28;20428;-59
2023/05/06 05:24:06;;;;;;;23.52;13.77;;;;;;;;;;5048348;28;20087;-59
2023/05/06 05:26:31;;;;;;;22.85;13.52;;;;;;;;;;5048859;28;20565;-58
2023/05/06 05:28:57;;;;;;;22.75;13.27;;;;;;;;;;5048204;28;20437;-60
2023/05/06 05:31:22;;;;;;;22.55;13.80;;;;;;;;;;5048251;28;20023;-59
2023/05/06 05:33:48;;;;;;;16.77;12.60;;;;;;;;;;5048343;28;20064;-59
2023/05/06 05:36:14;;;;;;;24.15;14.02;;;;;;;;;;5047709;28;20021;-59
2023/05/06 05:38:40;;;;;;;20.88;13.95;;;;;;;;;;5048092;28;20029;-59
2023/05/06 05:41:05;;;;;;;22.92;15.15;;;;;;;;;;5047354;28;20028;-59
2023/05/06 05:43:31;;;;;;;21.88;15.35;;;;;;;;;;5047727;28;20383;-58
2023/05/06 05:45:56;;;;;;;18.90;13.80;;;;;;;;;;5047815;28;20513;-59
2023/05/06 05:48:21;;;;;;;22.50;13.43;;;;;;;;;;5011839;28;20123;-58
2023/05/06 05:50:46;;;;;;;22.30;15.57;;;;;;;;;;5047237;28;20024;-58
2023/05/06 05:53:12;;;;;;;24.00;14.98;;;;;;;;;;5047650;28;20024;-54
2023/05/06 05:55:37;;;;;;;23.97;14.87;;;;;;;;;;5047477;28;20064;-59
2023/05/06 05:58:02;;;;;;;19.43;13.83;;;;;;;;;;5047718;28;20270;-59
2023/05/06 06:00:27;;;;;;;21.58;13.50;;;;;;;;;;5047217;28;20268;-55
2023/05/06 06:02:53;;;;;;;22.20;13.57;;;;;;;;;;5057510;28;20021;-59
2023/05/06 06:05:18;;;;;;;20.57;13.30;;;;;;;;;;5067679;28;20027;-60
2023/05/06 06:07:44;;;;;;;21.23;13.82;;;;;;;;;;5067510;28;20249;-59
2023/05/06 06:10:12;;;;;;;19.75;12.52;;;;;;;;;;5067628;28;20028;-56
2023/05/06 06:12:37;;;;;;;21.17;14.18;;;;;;;;;;5067708;28;20073;-58
2023/05/06 06:15:02;;;;;;;24.23;13.02;;;;;;;;;;5067333;28;20489;-52
2023/05/06 06:17:28;;;;;;;16.30;11.70;;;;;;;;;;5067010;28;20039;-59
2023/05/06 06:19:56;;;;;;;18.70;11.23;;;;;;;;;;5067230;28;20077;-57
2023/05/06 06:22:21;;;;;;;17.13;10.25;;;;;;;;;;5049010;28;20055;-56
2023/05/06 06:24:46;;;;;;;19.23;11.70;;;;;;;;;;5067008;28;20066;-59
2023/05/06 06:27:12;;;;;;;15.13;9.90;;;;;;;;;;5067406;28;20469;-56
2023/05/06 06:29:37;;;;;;;18.42;11.18;;;;;;;;;;5066780;28;20238;-59
2023/05/06 06:32:02;;;;;;;16.13;11.07;;;;;;;;;;5066983;28;20469;-59
2023/05/06 06:34:28;;;;;;;14.80;9.88;;;;;;;;;;5066798;28;20260;-58
2023/05/06 06:36:53;;;;;;;14.52;10.23;;;;;;;;;;5049128;28;20030;-58
2023/05/06 06:39:18;;;;;;;15.90;9.27;;;;;;;;;;5067015;28;20033;-60
2023/05/06 06:41:43;;;;;;;15.37;9.20;;;;;;;;;;5067180;28;20237;-58
2023/05/06 06:44:09;;;;;;;14.10;9.90;;;;;;;;;;5066813;28;20261;-58
2023/05/06 06:46:34;;;;;;;15.67;10.40;;;;;;;;;;5066566;28;20286;-59
2023/05/06 06:49:00;;;;;;;14.45;9.25;;;;;;;;;;5066653;28;20250;-60
2023/05/06 06:51:25;;;;;;;20.00;9.20;;;;;;;;;;5065995;28;20060;-55
2023/05/06 06:53:51;;;;;;;19.45;9.95;;;;;;;;;;5066855;28;20648;-57
2023/05/06 06:56:16;;;;;;;15.60;9.00;;;;;;;;;;5066924;28;20024;-60
2023/05/06 06:58:41;;;;;;;13.10;8.68;;;;;;;;;;5066325;28;20611;-58
2023/05/06 07:01:07;;;;;;;12.87;8.80;;;;;;;;;;5066385;28;20429;-58
2023/05/06 07:03:32;;;;;;;16.05;8.30;;;;;;;;;;5051630;28;20254;-57
2023/05/06 07:05:57;;;;;;;12.98;8.40;;;;;;;;;;5046170;28;20445;-60
2023/05/06 07:08:23;;;;;;;11.95;8.20;;;;;;;;;;5046288;28;20249;-57
2023/05/06 07:10:48;;;;;;;10.73;7.93;;;;;;;;;;5046164;28;20017;-60
2023/05/06 07:13:13;;;;;;;12.27;8.20;;;;;;;;;;5046393;28;20584;-60
2023/05/06 07:15:39;;;;;;;10.98;8.43;;;;;;;;;;5045926;28;20029;-58
2023/05/06 07:18:05;;;;;;;11.43;7.93;;;;;;;;;;5046145;28;20021;-60
2023/05/06 07:20:30;;;;;;;13.15;6.70;;;;;;;;;;5046847;28;20459;-58
2023/05/06 07:22:55;;;;;;;14.63;7.75;;;;;;;;;;5046296;28;20055;-59
2023/05/06 07:25:21;;;;;;;11.07;7.65;;;;;;;;;;5046279;28;20020;-56
2023/05/06 07:27:46;;;;;;;10.68;6.60;;;;;;;;;;5046107;28;20071;-58
2023/05/06 07:30:11;;;;;;;9.57;7.18;;;;;;;;;;5046482;28;20020;-60
2023/05/06 07:32:37;;;;;;;12.10;6.32;;;;;;;;;;5046020;28;20028;-58
2023/05/06 07:35:02;;;;;;;10.63;6.80;;;;;;;;;;5045747;28;20178;-60
2023/05/06 07:37:28;;;;;;;9.68;7.10;;;;;;;;;;5045707;28;20786;-58
2023/05/06 07:39:53;;;;;;;11.33;7.23;;;;;;;;;;5045865;28;20083;-59
2023/05/06 07:42:18;;;;;;;13.50;7.40;;;;;;;;;;5045292;28;20687;-59
2023/05/06 07:44:43;;;;;;;12.60;7.53;;;;;;;;;;4993410;28;20045;-59
2023/05/06 07:47:09;;;;;;;16.67;7.30;;;;;;;;;;5045625;28;20313;-57
2023/05/06 07:49:34;;;;;;;13.85;7.07;;;;;;;;;;5045558;28;20691;-58
2023/05/06 07:52:02;;;;;;;13.45;8.13;;;;;;;;;;5045674;28;20045;-59
2023/05/06 07:54:27;;;;;;;8.80;6.30;;;;;;;;;;5045170;28;20029;-58
2023/05/06 07:56:53;;;;;;;8.30;7.38;;;;;;;;;;4993893;28;20025;-56
2023/05/06 07:59:18;;;;;;;10.73;7.80;;;;;;;;;;5045575;28;20020;-59
2023/05/06 08:01:43;;;;;;;13.00;7.23;;;;;;;;;;5045823;28;20250;-59
2023/05/06 08:04:08;;;;;;;11.47;7.60;;;;;;;;;;5045348;28;20104;-58
2023/05/06 08:06:34;;;;;;;8.93;6.57;;;;;;;;;;5045229;28;20246;-56
2023/05/06 08:08:59;;;;;;;11.15;7.70;;;;;;;;;;5045201;28;20265;-58
2023/05/06 08:11:24;;;;;;;15.38;8.07;;;;;;;;;;5044993;28;20049;-57
2023/05/06 08:13:50;;;;;;;12.03;7.50;;;;;;;;;;5045348;28;20020;-60
2023/05/06 08:16:15;;;;;;;6.67;5.33;;;;;;;;;;5045014;28;20300;-60
2023/05/06 08:18:40;;;;;;;14.25;5.75;;;;;;;;;;5044833;28;20278;-56
2023/05/06 08:21:06;;;;;;;10.65;6.68;;;;;;;;;;5044915;28;20031;-58
2023/05/06 08:23:31;;;;;;;8.15;6.43;;;;;;;;;;5044580;28;20086;-60
2023/05/06 08:25:58;;;;;;;8.25;5.68;;;;;;;;;;5044912;28;20025;-58
2023/05/06 08:28:23;;;;;;;13.13;6.28;;;;;;;;;;5045162;28;20055;-56
2023/05/06 08:30:50;;;;;;;8.60;6.15;;;;;;;;;;5045184;28;20478;-57
2023/05/06 08:33:15;;;;;;;8.10;5.38;;;;;;;;;;5026974;28;20024;-59
2023/05/06 08:35:40;;;;;;;10.50;6.40;;;;;;;;;;5044493;28;20104;-57
2023/05/06 08:38:06;;;;;;;8.07;6.63;;;;;;;;;;5044585;28;20021;-60
2023/05/06 08:40:32;;;;;;;8.67;7.00;;;;;;;;;;5044738;28;20254;-59
2023/05/06 08:42:58;;;;;;;14.18;6.68;;;;;;;;;;5001953;28;20375;-59
2023/05/06 08:45:23;;;;;;;10.75;6.45;;;;;;;;;;5001840;28;20087;-59
2023/05/06 08:47:49;;;;;;;9.73;7.20;;;;;;;;;;5002291;28;20069;-58
2023/05/06 08:50:14;;;;;;;8.57;6.30;;;;;;;;;;5002419;28;20074;-60
2023/05/06 08:52:40;;;;;;;7.68;5.90;;;;;;;;;;5002135;28;20262;-54
2023/05/06 08:55:06;;;;;;;7.97;5.80;;;;;;;;;;5002526;28;20026;-58
2023/05/06 08:57:31;;;;;;;10.57;6.43;;;;;;;;;;5002191;28;20081;-59
2023/05/06 08:59:57;;;;;;;7.80;5.43;;;;;;;;;;5002147;28;20086;-59
2023/05/06 09:02:23;;;;;;;10.93;6.25;;;;;;;;;;5002059;28;20560;-59
2023/05/06 09:04:48;;;;;;;10.82;5.25;;;;;;;;;;5002126;28;20030;-58
2023/05/06 09:07:13;;;;;;;6.00;4.77;;;;;;;;;;5001966;28;20379;-57
2023/05/06 09:09:39;;;;;;;8.27;4.93;;;;;;;;;;5001855;28;20026;-59
2023/05/06 09:12:08;;;;;;;6.63;4.55;;;;;;;;;;5002440;28;20471;-57
2023/05/06 09:14:34;;;;;;;8.10;5.40;;;;;;;;;;5034317;28;20044;-57
2023/05/06 09:16:59;;;;;;;7.83;5.43;;;;;;;;;;5048340;28;20584;-57
2023/05/06 09:19:26;;;;;;;7.90;4.50;;;;;;;;;;5048437;28;20273;-59
2023/05/06 09:21:51;;;;;;;8.85;5.30;;;;;;;;;;5048122;28;20281;-59
2023/05/06 09:24:16;;;;;;;5.55;4.95;;;;;;;;;;5012244;28;20025;-58
2023/05/06 09:26:43;;;;;;;8.90;4.82;;;;;;;;;;5047461;28;20074;-56
2023/05/06 09:29:09;;;;;;;10.25;4.65;;;;;;;;;;5047988;28;20289;-58
2023/05/06 09:31:41;;;;;;;7.25;4.65;;;;;;;;;;5048015;28;20670;-59
2023/05/06 09:34:07;;;;;;;5.45;3.85;;;;;;;;;;5047664;28;20111;-58
2023/05/06 09:36:32;;;;;;;9.32;4.68;;;;;;;;;;5047686;28;20410;-54
2023/05/06 09:38:58;;;;;;;6.87;4.30;;;;;;;;;;5047542;28;20028;-56
2023/05/06 09:41:24;;;;;;;6.05;4.00;;;;;;;;;;5047891;28;20798;-59
2023/05/06 09:43:50;;;;;;;7.10;4.18;;;;;;;;;;5047612;28;20017;-58
2023/05/06 09:46:16;;;;;;;9.18;4.72;;;;;;;;;;5047218;28;20075;-59
2023/05/06 09:48:41;;;;;;;7.50;4.70;;;;;;;;;;5047581;28;20478;-60
2023/05/06 09:51:07;;;;;;;8.93;4.43;;;;;;;;;;5047373;28;20357;-56
2023/05/06 09:53:38;;;;;;;5.07;4.00;;;;;;;;;;5047633;28;20025;-57
2023/05/06 09:56:05;;;;;;;5.80;3.35;;;;;;;;;;5047433;28;20421;-57
2023/05/06 09:58:33;;;;;;;4.53;3.60;;;;;;;;;;5047468;28;20090;-59
2023/05/06 10:00:59;;;;;;;6.15;3.22;;;;;;;;;;5047193;28;20072;-58
2023/05/06 10:03:25;;;;;;;5.15;4.00;;;;;;;;;;5056431;28;20028;-59
2023/05/06 10:05:52;;;;;;;5.78;3.75;;;;;;;;;;5067410;28;20036;-56
2023/05/06 10:08:17;;;;;;;11.15;3.13;;;;;;;;;;5067019;28;20020;-57
2023/05/06 10:10:44;;;;;;;6.97;4.20;;;;;;;;;;5067689;28;20454;-55
2023/05/06 10:13:09;;;;;;;4.05;3.45;;;;;;;;;;5067104;28;20120;-57
2023/05/06 10:15:36;;;;;;;3.53;3.20;;;;;;;;;;5067106;28;20486;-58
2023/05/06 10:18:01;;;;;;;3.92;2.90;;;;;;;;;;5067327;28;20028;-59
2023/05/06 10:20:29;;;;;;;4.88;2.97;;;;;;;;;;5067041;28;20032;-57
2023/05/06 10:23:07;;;;;;;5.68;3.30;;;;;;;;;;5066825;28;20028;-59
2023/05/06 10:25:36;;;;;;;4.68;3.20;;;;;;;;;;5048532;28;20021;-58
2023/05/06 10:28:05;;;;;;;3.85;3.45;;;;;;;;;;5065978;28;20028;-56
2023/05/06 10:30:32;;;;;;;4.47;3.72;;;;;;;;;;5049012;28;20020;-57
2023/05/06 10:32:58;;;;;;;5.43;3.60;;;;;;;;;;5067294;28;20020;-59
2023/05/06 10:35:30;;;;;;;4.57;3.38;;;;;;;;;;5066632;28;20366;-56
2023/05/06 10:37:55;;;;;;;5.70;3.38;;;;;;;;;;5067127;28;20056;-59
2023/05/06 10:40:22;;;;;;;3.70;3.30;;;;;;;;;;5066575;28;20449;-58
2023/05/06 10:42:47;;;;;;;7.60;3.97;;;;;;;;;;5067064;28;20040;-57
2023/05/06 10:45:14;;;;;;;6.45;3.92;;;;;;;;;;5066488;28;20029;-58
2023/05/06 10:47:51;;;;;;;5.80;3.40;;;;;;;;;;5014604;28;20058;-58
2023/05/06 10:50:17;;;;;;;7.03;4.55;;;;;;;;;;5066631;28;20453;-57
2023/05/06 10:52:43;;;;;;;7.30;3.88;;;;;;;;;;5066292;28;20440;-59
2023/05/06 10:55:32;;;;;;;7.47;3.72;;;;;;;;;;5066124;28;20175;-58
2023/05/06 10:58:00;;;;;;;8.02;3.72;;;;;;;;;;5066661;28;20036;-59
2023/05/06 11:00:25;;;;;;;5.00;3.90;;;;;;;;;;5066514;28;20358;-58
2023/05/06 11:02:55;;;;;;;4.18;3.78;;;;;;;;;;5045314;28;20406;-59
2023/05/06 11:05:21;;;;;;;5.93;3.42;;;;;;;;;;5046168;28;20070;-59
2023/05/06 11:07:48;;;;;;;6.53;3.75;;;;;;;;;;5046118;28;20017;-59
2023/05/06 11:10:14;;;;;;;5.22;3.50;;;;;;;;;;4994247;28;20036;-58
2023/05/06 11:12:46;;;;;;;8.50;3.30;;;;;;;;;;5046269;28;20025;-59
2023/05/06 11:15:42;;;;;;;3.38;3.03;;;;;;;;;;5046015;28;20485;-59
2023/05/06 11:18:35;;;;;;;5.43;4.03;;;;;;;;;;4945132;28;20070;-57
2023/05/06 11:21:03;;;;;;;3.38;2.90;;;;;;;;;;4929700;28;20469;-58
2023/05/06 11:23:41;;;;;;;6.13;3.30;;;;;;;;;;4945455;28;20114;-59
2023/05/06 11:26:06;;;;;;;5.57;3.50;;;;;;;;;;4945252;28;20027;-58
2023/05/06 11:28:32;;;;;;;3.20;2.70;;;;;;;;;;4945236;28;20497;-60
2023/05/06 11:30:58;;;;;;;6.03;3.65;;;;;;;;;;4945028;28;20031;-59
2023/05/06 11:33:26;;;;;;;4.10;3.20;;;;;;;;;;4945166;28;20368;-58
2023/05/06 11:35:52;;;;;;;4.50;2.80;;;;;;;;;;4944515;28;20035;-59
2023/05/06 11:38:17;;;;;;;6.18;3.00;;;;;;;;;;4944308;28;20278;-59
2023/05/06 11:40:42;;;;;;;4.95;3.08;;;;;;;;;;4944550;28;20031;-58
2023/05/06 11:43:08;;;;;;;4.78;3.42;;;;;;;;;;4944415;28;20043;-58
2023/05/06 11:45:47;;;;;;;6.07;3.20;;;;;;;;;;4944633;28;20043;-55
2023/05/06 11:48:15;;;;;;;6.97;3.00;;;;;;;;;;4944838;28;20122;-56
2023/05/06 11:50:45;;;;;;;4.80;3.05;;;;;;;;;;4944506;28;20465;-59
2023/05/06 11:53:10;;;;;;;7.10;3.72;;;;;;;;;;4944422;28;20446;-58
2023/05/06 11:55:37;;;;;;;4.50;3.50;;;;;;;;;;5023858;28;20061;-58
2023/05/06 11:58:02;;;;;;;3.38;3.00;;;;;;;;;;5044962;28;20127;-58
2023/05/06 12:00:27;;;;;;;6.53;3.47;;;;;;;;;;5044968;28;20116;-58
2023/05/06 12:02:56;;;;;;;6.18;3.30;;;;;;;;;;5044914;28;20243;-55
2023/05/06 12:05:22;;;;;;;9.32;3.60;;;;;;;;;;5044915;28;20025;-58
2023/05/06 12:07:47;;;;;;;5.32;3.60;;;;;;;;;;5044990;28;20090;-58
2023/05/06 12:10:13;;;;;;;5.50;3.05;;;;;;;;;;5045085;28;20021;-58
2023/05/06 12:12:38;;;;;;;4.38;3.05;;;;;;;;;;5044926;28;20028;-56
2023/05/06 12:15:03;;;;;;;5.55;3.90;;;;;;;;;;5044891;28;20048;-57
2023/05/06 12:17:29;;;;;;;4.35;2.88;;;;;;;;;;5045194;28;20021;-58
2023/05/06 12:19:54;;;;;;;5.93;3.10;;;;;;;;;;5045530;28;20120;-58
2023/05/06 12:22:21;;;;;;;5.90;3.70;;;;;;;;;;5045135;28;20242;-58
2023/05/06 12:24:47;;;;;;;3.70;3.28;;;;;;;;;;5045126;28;20021;-55
2023/05/06 12:27:12;;;;;;;3.60;3.05;;;;;;;;;;5044846;28;20039;-59
2023/05/06 12:29:38;;;;;;;7.95;3.38;;;;;;;;;;5045097;28;20473;-56
2023/05/06 12:32:10;;;;;;;5.38;3.28;;;;;;;;;;5045319;28;20378;-58
2023/05/06 12:34:39;;;;;;;4.07;3.08;;;;;;;;;;5044745;28;20035;-58
2023/05/06 12:37:04;;;;;;;4.47;3.33;;;;;;;;;;5044609;28;20029;-58
2023/05/06 12:39:36;;;;;;;3.72;3.30;;;;;;;;;;5044579;28;20037;-56
2023/05/06 12:42:02;;;;;;;3.28;2.97;;;;;;;;;;5044806;28;20056;-58
2023/05/06 12:44:37;;;;;;;6.47;3.50;;;;;;;;;;5026234;28;20061;-57
2023/05/06 12:47:03;;;;;;;3.47;3.00;;;;;;;;;;5044640;28;20289;-58
2023/05/06 12:49:47;;;;;;;6.60;3.30;;;;;;;;;;5045243;28;20325;-57
2023/05/06 12:52:12;;;;;;;5.38;3.38;;;;;;;;;;5048547;28;20517;-57
2023/05/06 12:54:37;;;;;;;5.68;3.10;;;;;;;;;;5048062;28;20029;-59
2023/05/06 12:57:03;;;;;;;6.68;3.60;;;;;;;;;;5048377;28;20355;-56
2023/05/06 12:59:29;;;;;;;5.20;3.40;;;;;;;;;;5048599;28;20460;-59
2023/05/06 13:01:54;;;;;;;6.85;3.83;;;;;;;;;;5048091;28;20013;-56
2023/05/06 13:04:20;;;;;;;4.15;3.25;;;;;;;;;;5047753;28;20028;-58
2023/05/06 13:06:45;;;;;;;7.43;3.03;;;;;;;;;;5048397;28;20013;-58
2023/05/06 13:09:10;;;;;;;4.83;3.23;;;;;;;;;;5048305;28;20064;-60
2023/05/06 13:11:36;;;;;;;7.57;3.28;;;;;;;;;;4995823;28;20630;-57
2023/05/06 13:14:01;;;;;;;7.03;2.70;;;;;;;;;;5030294;28;20032;-58
2023/05/06 13:16:30;;;;;;;6.77;3.20;;;;;;;;;;5047903;28;20280;-60
2023/05/06 13:18:55;;;;;;;;;;;;;;;;;;5048603;28;20356;-58
2023/05/06 13:21:20;;;;;;;5.35;3.00;;;;;;;;;;5048249;28;20015;-57
2023/05/06 13:23:46;;;;;;;3.60;2.97;;;;;;;;;;5048289;28;20037;-58
2023/05/06 13:26:16;;;;;;;4.47;2.75;;;;;;;;;;5029701;28;20032;-57
2023/05/06 13:28:41;;;;;;;4.63;2.90;;;;;;;;;;5047990;28;20029;-57
2023/05/06 13:31:06;;;;;;;5.15;3.08;;;;;;;;;;5047757;28;20398;-59
2023/05/06 13:33:33;;;;;;;4.05;2.80;;;;;;;;;;5050296;28;20075;-57
2023/05/06 13:35:58;;;;;;;3.28;2.70;;;;;;;;;;5053322;28;20076;-57
2023/05/06 13:38:23;;;;;;;6.20;3.40;;;;;;;;;;5052433;28;20447;-57
2023/05/06 13:40:50;;;;;;;3.93;3.40;;;;;;;;;;5054112;28;20021;-57
2023/05/06 13:43:15;;;;;;;3.15;2.65;;;;;;;;;;5052575;28;20285;-58
2023/05/06 13:45:41;;;;;;;18.00;11.32;;;;;;;;;;5048516;28;20049;-59
2023/05/06 13:48:07;;;;;;;6.78;3.22;;;;;;;;;;5047220;28;20136;-57
2023/05/06 13:50:34;;;;;;;5.40;3.30;;;;;;;;;;5047287;28;20021;-57
2023/05/06 13:53:00;;;;;;;6.05;2.95;;;;;;;;;;5029257;28;20470;-56
2023/05/06 13:55:25;;;;;;;8.25;3.40;;;;;;;;;;5047335;28;20069;-59
2023/05/06 13:57:50;;;;;;;7.23;3.13;;;;;;;;;;5047414;28;20467;-58
2023/05/06 14:00:16;;;;;;;3.20;2.78;;;;;;;;;;5047143;28;20358;-57
2023/05/06 14:02:41;;;;;;;7.53;3.17;;;;;;;;;;5047431;28;20458;-57
2023/05/06 14:05:07;;;;;;;5.25;2.90;;;;;;;;;;5063729;28;20463;-59
2023/05/06 14:07:32;;;;;;;4.10;3.13;;;;;;;;;;5048745;28;20366;-58
2023/05/06 14:09:57;;;;;;;3.27;2.67;;;;;;;;;;5049046;28;20474;-58
2023/05/06 14:12:23;;;;;;;4.85;2.78;;;;;;;;;;5066815;28;20238;-58
2023/05/06 14:14:48;;;;;;;5.97;2.75;;;;;;;;;;5067367;28;20016;-59
2023/05/06 14:17:14;;;;;;;4.32;3.17;;;;;;;;;;5066804;28;20078;-59
2023/05/06 14:19:39;;;;;;;8.07;3.35;;;;;;;;;;5066785;28;20029;-54
2023/05/06 14:22:04;;;;;;;4.70;2.67;;;;;;;;;;5067170;28;20417;-60
2023/05/06 14:24:30;;;;;;;7.15;2.72;;;;;;;;;;5014577;28;20245;-56